sensor_id;sensor_type;location;lat;lon;timestamp;temperature;humidity
67093;SHT31;54011;50.772;7.730;2022-12-28T00:01:32;4.91;88.66
67093;SHT31;54011;50.772;7.730;2022-12-28T00:03:59;4.92;88.77
67093;SHT31;54011;50.772;7.730;2022-12-28T00:06:28;4.97;88.44
67093;SHT31;54011;50.772;7.730;2022-12-28T00:08:55;5.02;88.36
67093;SHT31;54011;50.772;7.730;2022-12-28T00:11:22;4.97;88.69
67093;SHT31;54011;50.772;7.730;2022-12-28T00:13:48;5.00;88.55
67093;SHT31;54011;50.772;7.730;2022-12-28T00:16:30;4.99;88.72
67093;SHT31;54011;50.772;7.730;2022-12-28T00:18:57;5.03;88.67
67093;SHT31;54011;50.772;7.730;2022-12-28T00:21:23;5.00;88.61
67093;SHT31;54011;50.772;7.730;2022-12-28T00:23:53;5.08;88.58
67093;SHT31;54011;50.772;7.730;2022-12-28T00:26:19;5.11;88.49
67093;SHT31;54011;50.772;7.730;2022-12-28T00:28:46;5.19;88.20
67093;SHT31;54011;50.772;7.730;2022-12-28T00:31:13;5.19;88.20
67093;SHT31;54011;50.772;7.730;2022-12-28T00:33:39;5.19;88.21
67093;SHT31;54011;50.772;7.730;2022-12-28T00:36:05;5.12;88.46
67093;SHT31;54011;50.772;7.730;2022-12-28T00:38:33;5.19;88.38
67093;SHT31;54011;50.772;7.730;2022-12-28T00:41:00;5.25;88.16
67093;SHT31;54011;50.772;7.730;2022-12-28T00:43:25;5.26;88.14
67093;SHT31;54011;50.772;7.730;2022-12-28T00:45:51;5.27;88.41
67093;SHT31;54011;50.772;7.730;2022-12-28T00:48:17;5.27;88.30
67093;SHT31;54011;50.772;7.730;2022-12-28T00:50:43;5.27;88.48
67093;SHT31;54011;50.772;7.730;2022-12-28T00:53:10;5.34;88.44
67093;SHT31;54011;50.772;7.730;2022-12-28T00:55:36;5.26;88.59
67093;SHT31;54011;50.772;7.730;2022-12-28T00:58:04;5.39;88.45
67093;SHT31;54011;50.772;7.730;2022-12-28T01:00:30;5.37;88.70
67093;SHT31;54011;50.772;7.730;2022-12-28T01:02:56;5.42;88.62
67093;SHT31;54011;50.772;7.730;2022-12-28T01:05:23;5.43;88.61
67093;SHT31;54011;50.772;7.730;2022-12-28T01:07:52;5.42;88.67
67093;SHT31;54011;50.772;7.730;2022-12-28T01:10:18;5.47;88.84
67093;SHT31;54011;50.772;7.730;2022-12-28T01:12:43;5.48;89.04
67093;SHT31;54011;50.772;7.730;2022-12-28T01:15:10;5.44;89.07
67093;SHT31;54011;50.772;7.730;2022-12-28T01:17:36;5.53;89.07
67093;SHT31;54011;50.772;7.730;2022-12-28T01:20:02;5.58;89.17
67093;SHT31;54011;50.772;7.730;2022-12-28T01:22:27;5.64;89.50
67093;SHT31;54011;50.772;7.730;2022-12-28T01:24:53;5.60;89.89
67093;SHT31;54011;50.772;7.730;2022-12-28T01:27:19;5.58;90.35
67093;SHT31;54011;50.772;7.730;2022-12-28T01:29:44;5.47;90.94
67093;SHT31;54011;50.772;7.730;2022-12-28T01:32:10;5.57;90.90
67093;SHT31;54011;50.772;7.730;2022-12-28T01:34:35;5.54;91.46
67093;SHT31;54011;50.772;7.730;2022-12-28T01:37:01;5.51;91.55
67093;SHT31;54011;50.772;7.730;2022-12-28T01:39:27;5.56;91.86
67093;SHT31;54011;50.772;7.730;2022-12-28T01:41:53;5.50;92.18
67093;SHT31;54011;50.772;7.730;2022-12-28T01:47:11;5.54;92.20
67093;SHT31;54011;50.772;7.730;2022-12-28T01:50:03;5.57;92.33
67093;SHT31;54011;50.772;7.730;2022-12-28T01:52:41;5.57;92.38
67093;SHT31;54011;50.772;7.730;2022-12-28T01:57:47;5.57;92.70
67093;SHT31;54011;50.772;7.730;2022-12-28T02:00:15;5.64;92.43
67093;SHT31;54011;50.772;7.730;2022-12-28T02:02:48;5.68;92.33
67093;SHT31;54011;50.772;7.730;2022-12-28T02:05:14;5.73;92.27
67093;SHT31;54011;50.772;7.730;2022-12-28T02:10:23;5.71;92.23
67093;SHT31;54011;50.772;7.730;2022-12-28T02:12:48;5.73;92.54
67093;SHT31;54011;50.772;7.730;2022-12-28T02:15:14;5.74;92.33
67093;SHT31;54011;50.772;7.730;2022-12-28T02:17:40;5.77;92.12
67093;SHT31;54011;50.772;7.730;2022-12-28T02:20:06;5.77;92.14
67093;SHT31;54011;50.772;7.730;2022-12-28T02:22:58;5.78;92.42
67093;SHT31;54011;50.772;7.730;2022-12-28T02:31:35;5.85;92.16
67093;SHT31;54011;50.772;7.730;2022-12-28T02:36:42;5.99;91.41
67093;SHT31;54011;50.772;7.730;2022-12-28T02:39:19;6.02;91.62
67093;SHT31;54011;50.772;7.730;2022-12-28T02:41:46;6.01;91.59
67093;SHT31;54011;50.772;7.730;2022-12-28T02:44:14;6.02;91.72
67093;SHT31;54011;50.772;7.730;2022-12-28T02:46:59;6.02;91.35
67093;SHT31;54011;50.772;7.730;2022-12-28T02:49:44;6.08;91.40
67093;SHT31;54011;50.772;7.730;2022-12-28T02:55:32;6.05;91.55
67093;SHT31;54011;50.772;7.730;2022-12-28T03:10:06;6.16;90.69
67093;SHT31;54011;50.772;7.730;2022-12-28T03:12:47;6.18;90.66
67093;SHT31;54011;50.772;7.730;2022-12-28T03:15:19;6.18;90.90
67093;SHT31;54011;50.772;7.730;2022-12-28T03:18:11;6.16;90.85
67093;SHT31;54011;50.772;7.730;2022-12-28T03:21:00;6.21;90.74
67093;SHT31;54011;50.772;7.730;2022-12-28T03:23:48;6.25;90.49
67093;SHT31;54011;50.772;7.730;2022-12-28T03:26:34;6.21;90.55
67093;SHT31;54011;50.772;7.730;2022-12-28T03:29:21;6.22;90.37
67093;SHT31;54011;50.772;7.730;2022-12-28T03:32:08;6.19;90.50
67093;SHT31;54011;50.772;7.730;2022-12-28T03:34:34;6.18;90.42
67093;SHT31;54011;50.772;7.730;2022-12-28T03:37:10;6.29;90.20
67093;SHT31;54011;50.772;7.730;2022-12-28T03:42:35;6.32;89.74
67093;SHT31;54011;50.772;7.730;2022-12-28T03:45:33;6.40;89.60
67093;SHT31;54011;50.772;7.730;2022-12-28T03:48:02;6.37;89.88
67093;SHT31;54011;50.772;7.730;2022-12-28T03:50:30;6.42;89.88
67093;SHT31;54011;50.772;7.730;2022-12-28T03:52:59;6.43;89.88
67093;SHT31;54011;50.772;7.730;2022-12-28T03:55:25;6.49;89.15
67093;SHT31;54011;50.772;7.730;2022-12-28T03:57:51;6.47;89.67
67093;SHT31;54011;50.772;7.730;2022-12-28T04:00:20;6.47;89.32
67093;SHT31;54011;50.772;7.730;2022-12-28T04:02:48;6.57;89.34
67093;SHT31;54011;50.772;7.730;2022-12-28T04:05:14;6.62;89.22
67093;SHT31;54011;50.772;7.730;2022-12-28T04:07:40;6.56;89.37
67093;SHT31;54011;50.772;7.730;2022-12-28T04:10:07;6.56;89.37
67093;SHT31;54011;50.772;7.730;2022-12-28T04:12:34;6.66;89.27
67093;SHT31;54011;50.772;7.730;2022-12-28T04:15:12;6.60;89.46
67093;SHT31;54011;50.772;7.730;2022-12-28T04:17:38;6.64;89.62
67093;SHT31;54011;50.772;7.730;2022-12-28T04:20:04;6.64;89.36
67093;SHT31;54011;50.772;7.730;2022-12-28T04:22:30;6.74;89.11
67093;SHT31;54011;50.772;7.730;2022-12-28T04:24:57;6.70;89.40
67093;SHT31;54011;50.772;7.730;2022-12-28T04:27:22;6.72;89.48
67093;SHT31;54011;50.772;7.730;2022-12-28T04:29:49;6.70;89.51
67093;SHT31;54011;50.772;7.730;2022-12-28T04:32:18;6.77;89.30
67093;SHT31;54011;50.772;7.730;2022-12-28T04:34:44;6.77;89.59
67093;SHT31;54011;50.772;7.730;2022-12-28T04:37:10;6.73;89.65
67093;SHT31;54011;50.772;7.730;2022-12-28T04:39:36;6.77;89.32
67093;SHT31;54011;50.772;7.730;2022-12-28T04:42:01;6.76;89.71
67093;SHT31;54011;50.772;7.730;2022-12-28T04:44:27;6.74;89.73
67093;SHT31;54011;50.772;7.730;2022-12-28T04:46:54;6.77;89.92
67093;SHT31;54011;50.772;7.730;2022-12-28T04:49:19;6.76;90.15
67093;SHT31;54011;50.772;7.730;2022-12-28T04:51:44;6.77;89.85
67093;SHT31;54011;50.772;7.730;2022-12-28T04:54:12;6.81;89.74
67093;SHT31;54011;50.772;7.730;2022-12-28T04:56:38;6.79;89.89
67093;SHT31;54011;50.772;7.730;2022-12-28T04:59:04;6.83;89.81
67093;SHT31;54011;50.772;7.730;2022-12-28T05:01:30;6.84;90.35
67093;SHT31;54011;50.772;7.730;2022-12-28T05:03:56;6.81;90.73
67093;SHT31;54011;50.772;7.730;2022-12-28T05:06:23;6.76;90.91
67093;SHT31;54011;50.772;7.730;2022-12-28T05:08:48;6.69;91.27
67093;SHT31;54011;50.772;7.730;2022-12-28T05:11:20;6.67;91.80
67093;SHT31;54011;50.772;7.730;2022-12-28T05:13:47;6.67;92.07
67093;SHT31;54011;50.772;7.730;2022-12-28T05:16:16;6.62;92.45
67093;SHT31;54011;50.772;7.730;2022-12-28T05:18:42;6.64;92.44
67093;SHT31;54011;50.772;7.730;2022-12-28T05:21:12;6.69;92.30
67093;SHT31;54011;50.772;7.730;2022-12-28T05:23:38;6.70;92.26
67093;SHT31;54011;50.772;7.730;2022-12-28T05:26:05;6.74;92.19
67093;SHT31;54011;50.772;7.730;2022-12-28T05:28:31;6.77;92.14
67093;SHT31;54011;50.772;7.730;2022-12-28T05:30:59;6.76;92.68
67093;SHT31;54011;50.772;7.730;2022-12-28T05:33:30;6.72;92.79
67093;SHT31;54011;50.772;7.730;2022-12-28T05:36:04;6.79;92.72
67093;SHT31;54011;50.772;7.730;2022-12-28T05:38:31;6.84;92.06
67093;SHT31;54011;50.772;7.730;2022-12-28T05:41:03;6.80;92.29
67093;SHT31;54011;50.772;7.730;2022-12-28T05:43:29;6.80;91.90
67093;SHT31;54011;50.772;7.730;2022-12-28T05:45:59;6.86;92.16
67093;SHT31;54011;50.772;7.730;2022-12-28T05:48:24;6.91;91.87
67093;SHT31;54011;50.772;7.730;2022-12-28T05:50:50;6.94;91.65
67093;SHT31;54011;50.772;7.730;2022-12-28T05:53:15;7.00;91.34
67093;SHT31;54011;50.772;7.730;2022-12-28T05:55:41;6.98;91.47
67093;SHT31;54011;50.772;7.730;2022-12-28T05:58:06;7.00;91.20
67093;SHT31;54011;50.772;7.730;2022-12-28T06:00:33;7.07;90.85
67093;SHT31;54011;50.772;7.730;2022-12-28T06:03:00;7.09;90.85
67093;SHT31;54011;50.772;7.730;2022-12-28T06:05:25;7.11;91.03
67093;SHT31;54011;50.772;7.730;2022-12-28T06:07:51;7.15;90.91
67093;SHT31;54011;50.772;7.730;2022-12-28T06:10:17;7.18;90.81
67093;SHT31;54011;50.772;7.730;2022-12-28T06:12:42;7.19;90.70
67093;SHT31;54011;50.772;7.730;2022-12-28T06:15:08;7.18;90.63
67093;SHT31;54011;50.772;7.730;2022-12-28T06:17:34;7.24;90.68
67093;SHT31;54011;50.772;7.730;2022-12-28T06:19:59;7.15;91.02
67093;SHT31;54011;50.772;7.730;2022-12-28T06:22:25;7.25;90.43
67093;SHT31;54011;50.772;7.730;2022-12-28T06:24:51;7.29;90.71
67093;SHT31;54011;50.772;7.730;2022-12-28T06:27:16;7.32;90.45
67093;SHT31;54011;50.772;7.730;2022-12-28T06:29:42;7.39;90.15
67093;SHT31;54011;50.772;7.730;2022-12-28T06:32:07;7.38;89.99
67093;SHT31;54011;50.772;7.730;2022-12-28T06:34:32;7.38;89.95
67093;SHT31;54011;50.772;7.730;2022-12-28T06:36:58;7.41;89.64
67093;SHT31;54011;50.772;7.730;2022-12-28T06:39:24;7.49;89.56
67093;SHT31;54011;50.772;7.730;2022-12-28T06:41:49;7.41;89.54
67093;SHT31;54011;50.772;7.730;2022-12-28T06:44:15;7.49;89.45
67093;SHT31;54011;50.772;7.730;2022-12-28T06:46:40;7.52;89.49
67093;SHT31;54011;50.772;7.730;2022-12-28T06:49:06;7.56;89.23
67093;SHT31;54011;50.772;7.730;2022-12-28T06:51:33;7.58;89.31
67093;SHT31;54011;50.772;7.730;2022-12-28T06:54:07;7.56;89.29
67093;SHT31;54011;50.772;7.730;2022-12-28T06:56:34;7.65;88.66
67093;SHT31;54011;50.772;7.730;2022-12-28T06:59:00;7.65;88.90
67093;SHT31;54011;50.772;7.730;2022-12-28T07:01:31;7.65;88.77
67093;SHT31;54011;50.772;7.730;2022-12-28T07:03:59;7.61;88.85
67093;SHT31;54011;50.772;7.730;2022-12-28T07:06:27;7.66;88.75
67093;SHT31;54011;50.772;7.730;2022-12-28T07:09:04;7.69;88.54
67093;SHT31;54011;50.772;7.730;2022-12-28T07:11:30;7.89;87.82
67093;SHT31;54011;50.772;7.730;2022-12-28T07:13:56;7.77;88.30
67093;SHT31;54011;50.772;7.730;2022-12-28T07:16:23;7.86;87.79
67093;SHT31;54011;50.772;7.730;2022-12-28T07:18:49;7.83;88.15
67093;SHT31;54011;50.772;7.730;2022-12-28T07:21:20;7.82;88.40
67093;SHT31;54011;50.772;7.730;2022-12-28T07:23:48;7.85;87.84
67093;SHT31;54011;50.772;7.730;2022-12-28T07:26:19;7.90;87.57
67093;SHT31;54011;50.772;7.730;2022-12-28T07:28:46;7.96;87.69
67093;SHT31;54011;50.772;7.730;2022-12-28T07:31:14;7.86;87.85
67093;SHT31;54011;50.772;7.730;2022-12-28T07:33:42;7.90;87.65
67093;SHT31;54011;50.772;7.730;2022-12-28T07:36:09;7.93;87.48
67093;SHT31;54011;50.772;7.730;2022-12-28T07:38:35;7.97;87.51
67093;SHT31;54011;50.772;7.730;2022-12-28T07:41:16;8.00;87.24
67093;SHT31;54011;50.772;7.730;2022-12-28T07:43:42;7.90;87.72
67093;SHT31;54011;50.772;7.730;2022-12-28T07:46:11;7.98;87.20
67093;SHT31;54011;50.772;7.730;2022-12-28T07:48:38;8.03;87.06
67093;SHT31;54011;50.772;7.730;2022-12-28T07:53:34;8.04;86.99
67093;SHT31;54011;50.772;7.730;2022-12-28T07:56:00;8.08;86.74
67093;SHT31;54011;50.772;7.730;2022-12-28T07:58:25;8.08;86.60
67093;SHT31;54011;50.772;7.730;2022-12-28T08:00:51;8.04;87.17
67093;SHT31;54011;50.772;7.730;2022-12-28T08:03:17;8.04;87.20
67093;SHT31;54011;50.772;7.730;2022-12-28T08:05:43;8.13;86.80
67093;SHT31;54011;50.772;7.730;2022-12-28T08:08:09;8.10;86.76
67093;SHT31;54011;50.772;7.730;2022-12-28T08:10:36;8.16;86.68
67093;SHT31;54011;50.772;7.730;2022-12-28T08:13:01;8.13;86.52
67093;SHT31;54011;50.772;7.730;2022-12-28T08:15:28;8.26;86.27
67093;SHT31;54011;50.772;7.730;2022-12-28T08:17:54;8.24;86.56
67093;SHT31;54011;50.772;7.730;2022-12-28T08:20:20;8.28;86.48
67093;SHT31;54011;50.772;7.730;2022-12-28T08:22:45;8.28;86.35
67093;SHT31;54011;50.772;7.730;2022-12-28T08:25:11;8.34;86.01
67093;SHT31;54011;50.772;7.730;2022-12-28T08:27:39;8.41;86.11
67093;SHT31;54011;50.772;7.730;2022-12-28T08:30:05;8.44;86.16
67093;SHT31;54011;50.772;7.730;2022-12-28T08:32:30;8.47;86.03
67093;SHT31;54011;50.772;7.730;2022-12-28T08:34:56;8.41;86.01
67093;SHT31;54011;50.772;7.730;2022-12-28T08:37:21;8.40;86.56
67093;SHT31;54011;50.772;7.730;2022-12-28T08:39:47;8.49;86.75
67093;SHT31;54011;50.772;7.730;2022-12-28T08:42:13;8.47;86.06
67093;SHT31;54011;50.772;7.730;2022-12-28T08:44:38;8.41;86.74
67093;SHT31;54011;50.772;7.730;2022-12-28T08:47:04;8.47;86.59
67093;SHT31;54011;50.772;7.730;2022-12-28T08:49:29;8.41;86.40
67093;SHT31;54011;50.772;7.730;2022-12-28T08:51:57;8.52;86.36
67093;SHT31;54011;50.772;7.730;2022-12-28T08:54:23;8.64;86.01
67093;SHT31;54011;50.772;7.730;2022-12-28T08:56:52;8.72;85.16
67093;SHT31;54011;50.772;7.730;2022-12-28T08:59:18;8.66;85.45
67093;SHT31;54011;50.772;7.730;2022-12-28T09:01:44;8.76;84.93
67093;SHT31;54011;50.772;7.730;2022-12-28T09:04:13;8.78;84.34
67093;SHT31;54011;50.772;7.730;2022-12-28T09:06:39;8.96;84.36
67093;SHT31;54011;50.772;7.730;2022-12-28T09:09:06;8.97;84.04
67093;SHT31;54011;50.772;7.730;2022-12-28T09:11:33;9.09;83.46
67093;SHT31;54011;50.772;7.730;2022-12-28T09:14:00;9.09;83.87
67093;SHT31;54011;50.772;7.730;2022-12-28T09:16:26;9.20;83.61
67093;SHT31;54011;50.772;7.730;2022-12-28T09:18:54;9.15;83.63
67093;SHT31;54011;50.772;7.730;2022-12-28T09:21:21;9.12;83.38
67093;SHT31;54011;50.772;7.730;2022-12-28T09:23:47;9.09;84.31
67093;SHT31;54011;50.772;7.730;2022-12-28T09:26:18;9.07;83.69
67093;SHT31;54011;50.772;7.730;2022-12-28T09:28:51;9.00;84.22
67093;SHT31;54011;50.772;7.730;2022-12-28T09:31:19;8.90;84.70
67093;SHT31;54011;50.772;7.730;2022-12-28T09:33:45;8.97;84.20
67093;SHT31;54011;50.772;7.730;2022-12-28T09:36:25;9.07;83.79
67093;SHT31;54011;50.772;7.730;2022-12-28T09:38:51;9.15;83.76
67093;SHT31;54011;50.772;7.730;2022-12-28T09:46:52;9.03;84.16
67093;SHT31;54011;50.772;7.730;2022-12-28T09:49:23;9.05;84.59
67093;SHT31;54011;50.772;7.730;2022-12-28T09:51:55;9.02;85.65
67093;SHT31;54011;50.772;7.730;2022-12-28T09:54:22;8.92;85.75
67093;SHT31;54011;50.772;7.730;2022-12-28T09:56:50;8.80;85.80
67093;SHT31;54011;50.772;7.730;2022-12-28T09:59:23;8.78;86.41
67093;SHT31;54011;50.772;7.730;2022-12-28T10:01:59;8.78;86.25
67093;SHT31;54011;50.772;7.730;2022-12-28T10:04:26;8.78;85.81
67093;SHT31;54011;50.772;7.730;2022-12-28T10:06:51;8.80;86.21
67093;SHT31;54011;50.772;7.730;2022-12-28T10:09:28;8.80;85.83
67093;SHT31;54011;50.772;7.730;2022-12-28T10:11:57;8.92;84.90
67093;SHT31;54011;50.772;7.730;2022-12-28T10:14:32;8.90;85.39
67093;SHT31;54011;50.772;7.730;2022-12-28T10:17:00;8.89;84.99
67093;SHT31;54011;50.772;7.730;2022-12-28T10:19:27;8.88;84.51
67093;SHT31;54011;50.772;7.730;2022-12-28T10:22:15;9.10;84.41
67093;SHT31;54011;50.772;7.730;2022-12-28T10:24:43;9.15;83.98
67093;SHT31;54011;50.772;7.730;2022-12-28T10:27:23;9.15;83.66
67093;SHT31;54011;50.772;7.730;2022-12-28T10:29:52;9.16;83.81
67093;SHT31;54011;50.772;7.730;2022-12-28T10:32:18;9.16;83.24
67093;SHT31;54011;50.772;7.730;2022-12-28T10:35:02;9.28;83.34
67093;SHT31;54011;50.772;7.730;2022-12-28T10:37:34;9.28;83.09
67093;SHT31;54011;50.772;7.730;2022-12-28T10:40:07;9.28;82.52
67093;SHT31;54011;50.772;7.730;2022-12-28T10:42:41;9.31;82.74
67093;SHT31;54011;50.772;7.730;2022-12-28T10:45:18;9.36;82.67
67093;SHT31;54011;50.772;7.730;2022-12-28T10:47:49;9.38;81.82
67093;SHT31;54011;50.772;7.730;2022-12-28T10:50:52;9.46;81.78
67093;SHT31;54011;50.772;7.730;2022-12-28T10:53:32;9.54;81.61
67093;SHT31;54011;50.772;7.730;2022-12-28T10:58:33;9.59;81.05
67093;SHT31;54011;50.772;7.730;2022-12-28T11:03:31;9.79;81.01
67093;SHT31;54011;50.772;7.730;2022-12-28T11:06:15;9.78;80.77
67093;SHT31;54011;50.772;7.730;2022-12-28T11:08:43;9.85;80.51
67093;SHT31;54011;50.772;7.730;2022-12-28T11:11:17;10.50;78.82
67093;SHT31;54011;50.772;7.730;2022-12-28T11:13:44;10.36;78.74
67093;SHT31;54011;50.772;7.730;2022-12-28T11:16:12;10.25;78.75
67093;SHT31;54011;50.772;7.730;2022-12-28T11:18:38;10.23;78.32
67093;SHT31;54011;50.772;7.730;2022-12-28T11:21:09;10.13;78.90
67093;SHT31;54011;50.772;7.730;2022-12-28T11:23:37;10.09;79.80
67093;SHT31;54011;50.772;7.730;2022-12-28T11:26:03;10.09;79.85
67093;SHT31;54011;50.772;7.730;2022-12-28T11:28:29;10.08;80.07
67093;SHT31;54011;50.772;7.730;2022-12-28T11:30:55;10.09;79.13
67093;SHT31;54011;50.772;7.730;2022-12-28T11:33:32;9.96;79.26
67093;SHT31;54011;50.772;7.730;2022-12-28T11:35:59;9.85;80.01
67093;SHT31;54011;50.772;7.730;2022-12-28T11:38:40;9.82;79.55
67093;SHT31;54011;50.772;7.730;2022-12-28T11:43:53;9.88;80.05
67093;SHT31;54011;50.772;7.730;2022-12-28T11:51:19;9.94;79.54
67093;SHT31;54011;50.772;7.730;2022-12-28T11:56:15;9.75;80.00
67093;SHT31;54011;50.772;7.730;2022-12-28T12:09:24;9.71;80.47
67093;SHT31;54011;50.772;7.730;2022-12-28T12:11:55;9.68;80.39
67093;SHT31;54011;50.772;7.730;2022-12-28T12:14:28;9.58;80.30
67093;SHT31;54011;50.772;7.730;2022-12-28T12:16:59;9.70;80.81
67093;SHT31;54011;50.772;7.730;2022-12-28T12:19:31;9.79;80.67
67093;SHT31;54011;50.772;7.730;2022-12-28T12:22:02;9.73;80.25
67093;SHT31;54011;50.772;7.730;2022-12-28T12:24:53;9.59;80.55
67093;SHT31;54011;50.772;7.730;2022-12-28T12:27:41;9.67;81.01
67093;SHT31;54011;50.772;7.730;2022-12-28T12:30:16;9.55;82.40
67093;SHT31;54011;50.772;7.730;2022-12-28T12:32:54;9.54;82.26
67093;SHT31;54011;50.772;7.730;2022-12-28T12:35:23;9.30;83.63
67093;SHT31;54011;50.772;7.730;2022-12-28T12:47:05;8.97;85.47
67093;SHT31;54011;50.772;7.730;2022-12-28T12:52:50;8.95;86.48
67093;SHT31;54011;50.772;7.730;2022-12-28T12:58:21;8.86;85.85
67093;SHT31;54011;50.772;7.730;2022-12-28T13:01:13;9.00;86.02
67093;SHT31;54011;50.772;7.730;2022-12-28T13:03:45;8.86;85.78
67093;SHT31;54011;50.772;7.730;2022-12-28T13:06:19;8.93;85.76
67093;SHT31;54011;50.772;7.730;2022-12-28T13:11:14;8.88;85.46
67093;SHT31;54011;50.772;7.730;2022-12-28T13:13:44;8.89;85.93
67093;SHT31;54011;50.772;7.730;2022-12-28T13:16:14;8.89;86.62
67093;SHT31;54011;50.772;7.730;2022-12-28T13:18:55;8.86;85.45
67093;SHT31;54011;50.772;7.730;2022-12-28T13:21:22;8.83;86.35
67093;SHT31;54011;50.772;7.730;2022-12-28T13:23:49;8.85;86.27
67093;SHT31;54011;50.772;7.730;2022-12-28T13:26:16;8.88;86.14
67093;SHT31;54011;50.772;7.730;2022-12-28T13:29:07;8.85;86.20
67093;SHT31;54011;50.772;7.730;2022-12-28T13:31:34;8.83;86.49
67093;SHT31;54011;50.772;7.730;2022-12-28T13:34:03;8.76;86.06
67093;SHT31;54011;50.772;7.730;2022-12-28T13:36:29;8.79;86.69
67093;SHT31;54011;50.772;7.730;2022-12-28T13:39:05;8.79;86.06
67093;SHT31;54011;50.772;7.730;2022-12-28T13:41:33;8.75;85.85
67093;SHT31;54011;50.772;7.730;2022-12-28T13:46:36;8.80;85.33
67093;SHT31;54011;50.772;7.730;2022-12-28T13:49:03;8.88;85.59
67093;SHT31;54011;50.772;7.730;2022-12-28T13:51:29;8.79;85.06
67093;SHT31;54011;50.772;7.730;2022-12-28T13:53:58;8.89;84.80
67093;SHT31;54011;50.772;7.730;2022-12-28T13:56:24;8.93;85.10
67093;SHT31;54011;50.772;7.730;2022-12-28T13:58:54;8.89;85.27
67093;SHT31;54011;50.772;7.730;2022-12-28T14:01:23;8.88;85.54
67093;SHT31;54011;50.772;7.730;2022-12-28T14:03:51;8.80;85.06
67093;SHT31;54011;50.772;7.730;2022-12-28T14:06:19;8.89;85.27
67093;SHT31;54011;50.772;7.730;2022-12-28T14:08:45;8.92;85.09
67093;SHT31;54011;50.772;7.730;2022-12-28T14:11:11;8.89;84.97
67093;SHT31;54011;50.772;7.730;2022-12-28T14:13:37;8.93;84.77
67093;SHT31;54011;50.772;7.730;2022-12-28T14:16:04;8.95;84.95
67093;SHT31;54011;50.772;7.730;2022-12-28T14:18:31;8.97;84.87
67093;SHT31;54011;50.772;7.730;2022-12-28T14:20:58;8.96;84.61
67093;SHT31;54011;50.772;7.730;2022-12-28T14:23:26;8.97;84.15
67093;SHT31;54011;50.772;7.730;2022-12-28T14:25:53;8.99;83.94
67093;SHT31;54011;50.772;7.730;2022-12-28T14:28:25;9.03;83.62
67093;SHT31;54011;50.772;7.730;2022-12-28T14:30:54;9.02;84.22
67093;SHT31;54011;50.772;7.730;2022-12-28T14:33:23;9.07;83.48
67093;SHT31;54011;50.772;7.730;2022-12-28T14:36:00;9.12;83.02
67093;SHT31;54011;50.772;7.730;2022-12-28T14:38:46;9.09;83.15
67093;SHT31;54011;50.772;7.730;2022-12-28T14:41:17;9.05;83.84
67093;SHT31;54011;50.772;7.730;2022-12-28T14:43:50;9.07;83.14
67093;SHT31;54011;50.772;7.730;2022-12-28T14:46:28;9.05;83.10
67093;SHT31;54011;50.772;7.730;2022-12-28T14:48:54;9.09;82.90
67093;SHT31;54011;50.772;7.730;2022-12-28T14:51:27;9.05;82.93
67093;SHT31;54011;50.772;7.730;2022-12-28T14:56:34;9.15;82.52
67093;SHT31;54011;50.772;7.730;2022-12-28T14:59:00;9.17;82.60
67093;SHT31;54011;50.772;7.730;2022-12-28T15:01:39;9.15;82.73
67093;SHT31;54011;50.772;7.730;2022-12-28T15:04:05;9.10;83.14
67093;SHT31;54011;50.772;7.730;2022-12-28T15:06:31;9.10;83.20
67093;SHT31;54011;50.772;7.730;2022-12-28T15:08:58;9.09;82.51
67093;SHT31;54011;50.772;7.730;2022-12-28T15:11:26;9.10;82.49
67093;SHT31;54011;50.772;7.730;2022-12-28T15:13:52;9.09;82.55
67093;SHT31;54011;50.772;7.730;2022-12-28T15:16:20;9.06;82.62
67093;SHT31;54011;50.772;7.730;2022-12-28T15:18:47;9.13;82.31
67093;SHT31;54011;50.772;7.730;2022-12-28T15:21:18;9.07;82.74
67093;SHT31;54011;50.772;7.730;2022-12-28T15:23:52;9.12;82.59
67093;SHT31;54011;50.772;7.730;2022-12-28T15:26:18;9.17;82.57
67093;SHT31;54011;50.772;7.730;2022-12-28T15:28:44;9.15;82.61
67093;SHT31;54011;50.772;7.730;2022-12-28T15:31:17;9.19;82.56
67093;SHT31;54011;50.772;7.730;2022-12-28T15:33:43;9.07;83.16
67093;SHT31;54011;50.772;7.730;2022-12-28T15:36:18;9.02;83.45
67093;SHT31;54011;50.772;7.730;2022-12-28T15:38:45;9.15;82.77
67093;SHT31;54011;50.772;7.730;2022-12-28T15:41:10;9.17;83.46
67093;SHT31;54011;50.772;7.730;2022-12-28T15:43:54;9.12;83.39
67093;SHT31;54011;50.772;7.730;2022-12-28T15:46:20;9.17;83.31
67093;SHT31;54011;50.772;7.730;2022-12-28T15:48:45;9.17;83.30
67093;SHT31;54011;50.772;7.730;2022-12-28T15:51:11;9.19;83.30
67093;SHT31;54011;50.772;7.730;2022-12-28T15:53:36;9.22;83.18
67093;SHT31;54011;50.772;7.730;2022-12-28T15:56:02;9.24;82.89
67093;SHT31;54011;50.772;7.730;2022-12-28T15:58:28;9.26;82.64
67093;SHT31;54011;50.772;7.730;2022-12-28T16:00:54;9.28;82.61
67093;SHT31;54011;50.772;7.730;2022-12-28T16:03:32;9.27;82.53
67093;SHT31;54011;50.772;7.730;2022-12-28T16:05:58;9.27;82.55
67093;SHT31;54011;50.772;7.730;2022-12-28T16:08:23;9.27;82.82
67093;SHT31;54011;50.772;7.730;2022-12-28T16:10:49;9.30;82.47
67093;SHT31;54011;50.772;7.730;2022-12-28T16:13:14;9.31;82.52
67093;SHT31;54011;50.772;7.730;2022-12-28T16:15:40;9.30;82.64
67093;SHT31;54011;50.772;7.730;2022-12-28T16:18:08;9.28;82.40
67093;SHT31;54011;50.772;7.730;2022-12-28T16:20:33;9.31;82.41
67093;SHT31;54011;50.772;7.730;2022-12-28T16:22:59;9.34;82.22
67093;SHT31;54011;50.772;7.730;2022-12-28T16:25:24;9.38;82.16
67093;SHT31;54011;50.772;7.730;2022-12-28T16:27:49;9.41;82.02
67093;SHT31;54011;50.772;7.730;2022-12-28T16:30:15;9.50;81.20
67093;SHT31;54011;50.772;7.730;2022-12-28T16:32:40;9.50;81.44
67093;SHT31;54011;50.772;7.730;2022-12-28T16:35:06;9.46;81.60
67093;SHT31;54011;50.772;7.730;2022-12-28T16:37:33;9.46;80.96
67093;SHT31;54011;50.772;7.730;2022-12-28T16:39:59;9.54;81.04
67093;SHT31;54011;50.772;7.730;2022-12-28T16:42:24;9.57;80.90
67093;SHT31;54011;50.772;7.730;2022-12-28T16:44:49;9.57;80.61
67093;SHT31;54011;50.772;7.730;2022-12-28T16:47:15;9.52;80.47
67093;SHT31;54011;50.772;7.730;2022-12-28T16:49:40;9.58;80.61
67093;SHT31;54011;50.772;7.730;2022-12-28T16:52:06;9.58;80.12
67093;SHT31;54011;50.772;7.730;2022-12-28T16:54:31;9.52;80.46
67093;SHT31;54011;50.772;7.730;2022-12-28T16:56:58;9.61;80.26
67093;SHT31;54011;50.772;7.730;2022-12-28T16:59:26;9.67;79.77
67093;SHT31;54011;50.772;7.730;2022-12-28T17:01:53;9.58;80.14
67093;SHT31;54011;50.772;7.730;2022-12-28T17:04:18;9.54;80.36
67093;SHT31;54011;50.772;7.730;2022-12-28T17:06:44;9.52;80.81
67093;SHT31;54011;50.772;7.730;2022-12-28T17:09:11;9.52;80.87
67093;SHT31;54011;50.772;7.730;2022-12-28T17:11:37;9.47;80.85
67093;SHT31;54011;50.772;7.730;2022-12-28T17:14:09;9.55;80.53
67093;SHT31;54011;50.772;7.730;2022-12-28T17:16:35;9.58;80.78
67093;SHT31;54011;50.772;7.730;2022-12-28T17:19:02;9.44;81.02
67093;SHT31;54011;50.772;7.730;2022-12-28T17:21:29;9.47;81.04
67093;SHT31;54011;50.772;7.730;2022-12-28T17:23:55;9.41;81.27
67093;SHT31;54011;50.772;7.730;2022-12-28T17:26:21;9.46;81.28
67093;SHT31;54011;50.772;7.730;2022-12-28T17:28:47;9.47;81.34